sensor_id;sensor_type;location;lat;lon;timestamp;P1;durP1;ratioP1;P2;durP2;ratioP2
76863;SDS011;65834;52.364;9.754;2023-08-06T00:00:45;10.75;;;4.65;;
76863;SDS011;65834;52.364;9.754;2023-08-06T00:03:15;11.00;;;4.93;;
76863;SDS011;65834;52.364;9.754;2023-08-06T00:05:44;10.25;;;4.30;;
76863;SDS011;65834;52.364;9.754;2023-08-06T00:08:17;11.27;;;4.78;;
76863;SDS011;65834;52.364;9.754;2023-08-06T00:10:49;9.95;;;4.03;;
76863;SDS011;65834;52.364;9.754;2023-08-06T00:13:18;10.55;;;3.88;;
76863;SDS011;65834;52.364;9.754;2023-08-06T00:15:48;11.35;;;4.05;;
76863;SDS011;65834;52.364;9.754;2023-08-06T00:18:18;9.45;;;3.60;;
76863;SDS011;65834;52.364;9.754;2023-08-06T00:20:47;10.52;;;3.97;;
76863;SDS011;65834;52.364;9.754;2023-08-06T00:23:19;10.27;;;3.92;;
76863;SDS011;65834;52.364;9.754;2023-08-06T00:25:49;9.80;;;3.55;;
76863;SDS011;65834;52.364;9.754;2023-08-06T00:28:18;9.02;;;3.85;;
76863;SDS011;65834;52.364;9.754;2023-08-06T00:30:52;9.40;;;3.80;;
76863;SDS011;65834;52.364;9.754;2023-08-06T00:33:22;8.40;;;3.80;;
76863;SDS011;65834;52.364;9.754;2023-08-06T00:35:58;9.93;;;3.97;;
76863;SDS011;65834;52.364;9.754;2023-08-06T00:41:02;10.52;;;3.83;;
76863;SDS011;65834;52.364;9.754;2023-08-06T00:43:32;10.27;;;3.80;;
76863;SDS011;65834;52.364;9.754;2023-08-06T00:46:02;9.82;;;4.50;;
76863;SDS011;65834;52.364;9.754;2023-08-06T00:48:31;10.82;;;4.43;;
76863;SDS011;65834;52.364;9.754;2023-08-06T00:51:01;12.90;;;4.90;;
76863;SDS011;65834;52.364;9.754;2023-08-06T00:53:34;10.23;;;4.40;;
76863;SDS011;65834;52.364;9.754;2023-08-06T00:56:04;10.10;;;4.18;;
76863;SDS011;65834;52.364;9.754;2023-08-06T00:58:34;12.05;;;4.55;;
76863;SDS011;65834;52.364;9.754;2023-08-06T01:01:04;14.07;;;5.50;;
76863;SDS011;65834;52.364;9.754;2023-08-06T01:03:34;11.25;;;4.50;;
76863;SDS011;65834;52.364;9.754;2023-08-06T01:06:04;13.23;;;5.43;;
76863;SDS011;65834;52.364;9.754;2023-08-06T01:08:40;12.18;;;5.05;;
76863;SDS011;65834;52.364;9.754;2023-08-06T01:11:21;12.57;;;5.03;;
76863;SDS011;65834;52.364;9.754;2023-08-06T01:13:58;11.55;;;4.82;;
76863;SDS011;65834;52.364;9.754;2023-08-06T01:16:32;14.00;;;5.32;;
76863;SDS011;65834;52.364;9.754;2023-08-06T01:19:03;13.30;;;6.03;;
76863;SDS011;65834;52.364;9.754;2023-08-06T01:21:35;14.25;;;5.65;;
76863;SDS011;65834;52.364;9.754;2023-08-06T01:24:05;12.93;;;5.30;;
76863;SDS011;65834;52.364;9.754;2023-08-06T01:26:36;12.15;;;5.40;;
76863;SDS011;65834;52.364;9.754;2023-08-06T01:29:12;13.02;;;6.03;;
76863;SDS011;65834;52.364;9.754;2023-08-06T01:31:48;13.18;;;6.13;;
76863;SDS011;65834;52.364;9.754;2023-08-06T01:36:53;12.68;;;5.45;;
76863;SDS011;65834;52.364;9.754;2023-08-06T01:41:52;13.77;;;5.93;;
76863;SDS011;65834;52.364;9.754;2023-08-06T01:44:22;12.95;;;5.88;;
76863;SDS011;65834;52.364;9.754;2023-08-06T01:46:51;13.82;;;6.75;;
76863;SDS011;65834;52.364;9.754;2023-08-06T01:49:21;14.23;;;6.43;;
76863;SDS011;65834;52.364;9.754;2023-08-06T01:51:54;15.13;;;6.72;;
76863;SDS011;65834;52.364;9.754;2023-08-06T01:54:24;13.85;;;7.05;;
76863;SDS011;65834;52.364;9.754;2023-08-06T01:56:54;14.20;;;6.90;;
76863;SDS011;65834;52.364;9.754;2023-08-06T01:59:24;13.82;;;6.22;;
76863;SDS011;65834;52.364;9.754;2023-08-06T02:01:54;16.92;;;7.07;;
76863;SDS011;65834;52.364;9.754;2023-08-06T02:04:24;15.15;;;7.03;;
76863;SDS011;65834;52.364;9.754;2023-08-06T02:06:56;13.75;;;7.03;;
76863;SDS011;65834;52.364;9.754;2023-08-06T02:09:26;14.48;;;6.63;;
76863;SDS011;65834;52.364;9.754;2023-08-06T02:11:56;14.30;;;6.55;;
76863;SDS011;65834;52.364;9.754;2023-08-06T02:17:11;14.15;;;6.90;;
76863;SDS011;65834;52.364;9.754;2023-08-06T02:19:41;13.45;;;6.10;;
76863;SDS011;65834;52.364;9.754;2023-08-06T02:22:13;14.10;;;6.53;;
76863;SDS011;65834;52.364;9.754;2023-08-06T02:24:42;15.10;;;7.00;;
76863;SDS011;65834;52.364;9.754;2023-08-06T02:27:12;14.27;;;6.80;;
76863;SDS011;65834;52.364;9.754;2023-08-06T02:29:42;14.82;;;6.47;;
76863;SDS011;65834;52.364;9.754;2023-08-06T02:32:11;14.15;;;7.18;;
76863;SDS011;65834;52.364;9.754;2023-08-06T02:34:41;14.65;;;7.30;;
76863;SDS011;65834;52.364;9.754;2023-08-06T02:37:13;14.73;;;6.85;;
76863;SDS011;65834;52.364;9.754;2023-08-06T02:39:44;15.02;;;7.07;;
76863;SDS011;65834;52.364;9.754;2023-08-06T02:42:14;13.80;;;6.43;;
76863;SDS011;65834;52.364;9.754;2023-08-06T02:44:43;13.80;;;6.47;;
76863;SDS011;65834;52.364;9.754;2023-08-06T02:47:13;14.60;;;6.85;;
76863;SDS011;65834;52.364;9.754;2023-08-06T02:49:43;14.82;;;6.78;;
76863;SDS011;65834;52.364;9.754;2023-08-06T02:52:15;14.05;;;6.43;;
76863;SDS011;65834;52.364;9.754;2023-08-06T02:54:44;13.23;;;6.57;;
76863;SDS011;65834;52.364;9.754;2023-08-06T02:57:14;15.07;;;7.00;;
76863;SDS011;65834;52.364;9.754;2023-08-06T02:59:46;14.70;;;7.05;;
76863;SDS011;65834;52.364;9.754;2023-08-06T03:04:59;14.63;;;6.50;;
76863;SDS011;65834;52.364;9.754;2023-08-06T03:07:36;14.65;;;6.70;;
76863;SDS011;65834;52.364;9.754;2023-08-06T03:10:15;15.48;;;6.93;;
76863;SDS011;65834;52.364;9.754;2023-08-06T03:12:46;16.50;;;7.55;;
76863;SDS011;65834;52.364;9.754;2023-08-06T03:15:16;15.40;;;7.07;;
76863;SDS011;65834;52.364;9.754;2023-08-06T03:17:47;14.65;;;7.18;;
76863;SDS011;65834;52.364;9.754;2023-08-06T03:20:19;14.88;;;7.28;;
76863;SDS011;65834;52.364;9.754;2023-08-06T03:22:52;15.77;;;7.22;;
76863;SDS011;65834;52.364;9.754;2023-08-06T03:25:21;15.85;;;7.18;;
76863;SDS011;65834;52.364;9.754;2023-08-06T03:27:51;15.95;;;6.78;;
76863;SDS011;65834;52.364;9.754;2023-08-06T03:30:21;13.65;;;6.63;;
76863;SDS011;65834;52.364;9.754;2023-08-06T03:32:52;17.33;;;7.37;;
76863;SDS011;65834;52.364;9.754;2023-08-06T03:35:22;15.65;;;6.95;;
76863;SDS011;65834;52.364;9.754;2023-08-06T03:37:54;13.93;;;6.47;;
76863;SDS011;65834;52.364;9.754;2023-08-06T03:40:24;15.05;;;6.88;;
76863;SDS011;65834;52.364;9.754;2023-08-06T03:42:55;13.88;;;6.32;;
76863;SDS011;65834;52.364;9.754;2023-08-06T03:45:25;15.73;;;7.43;;
76863;SDS011;65834;52.364;9.754;2023-08-06T03:47:55;14.88;;;6.88;;
76863;SDS011;65834;52.364;9.754;2023-08-06T03:50:24;16.08;;;7.47;;
76863;SDS011;65834;52.364;9.754;2023-08-06T03:52:57;15.60;;;7.70;;
76863;SDS011;65834;52.364;9.754;2023-08-06T03:55:27;15.30;;;6.65;;
76863;SDS011;65834;52.364;9.754;2023-08-06T03:57:57;15.35;;;6.68;;
76863;SDS011;65834;52.364;9.754;2023-08-06T04:00:26;14.88;;;7.63;;
76863;SDS011;65834;52.364;9.754;2023-08-06T04:02:56;14.52;;;6.93;;
76863;SDS011;65834;52.364;9.754;2023-08-06T04:05:27;15.82;;;7.05;;
76863;SDS011;65834;52.364;9.754;2023-08-06T04:08:02;19.70;;;7.97;;
76863;SDS011;65834;52.364;9.754;2023-08-06T04:10:32;16.50;;;7.70;;
76863;SDS011;65834;52.364;9.754;2023-08-06T04:13:02;15.43;;;7.22;;
76863;SDS011;65834;52.364;9.754;2023-08-06T04:15:33;15.68;;;7.28;;
76863;SDS011;65834;52.364;9.754;2023-08-06T04:18:03;16.35;;;7.80;;
76863;SDS011;65834;52.364;9.754;2023-08-06T04:20:32;15.63;;;7.60;;
76863;SDS011;65834;52.364;9.754;2023-08-06T04:23:08;15.75;;;7.15;;
76863;SDS011;65834;52.364;9.754;2023-08-06T04:25:38;15.32;;;7.30;;
76863;SDS011;65834;52.364;9.754;2023-08-06T04:28:08;15.88;;;6.95;;
76863;SDS011;65834;52.364;9.754;2023-08-06T04:30:37;15.85;;;7.30;;
76863;SDS011;65834;52.364;9.754;2023-08-06T04:33:08;15.13;;;7.22;;
76863;SDS011;65834;52.364;9.754;2023-08-06T04:35:38;15.90;;;6.03;;
76863;SDS011;65834;52.364;9.754;2023-08-06T04:38:10;16.83;;;7.60;;
76863;SDS011;65834;52.364;9.754;2023-08-06T04:40:40;15.27;;;6.95;;
76863;SDS011;65834;52.364;9.754;2023-08-06T04:43:10;15.07;;;6.70;;
76863;SDS011;65834;52.364;9.754;2023-08-06T04:45:45;16.55;;;6.50;;
76863;SDS011;65834;52.364;9.754;2023-08-06T04:48:15;16.15;;;7.57;;
76863;SDS011;65834;52.364;9.754;2023-08-06T04:50:45;16.08;;;7.47;;
76863;SDS011;65834;52.364;9.754;2023-08-06T04:53:18;15.57;;;6.78;;
76863;SDS011;65834;52.364;9.754;2023-08-06T04:55:47;15.73;;;6.57;;
76863;SDS011;65834;52.364;9.754;2023-08-06T04:58:17;15.10;;;7.28;;
76863;SDS011;65834;52.364;9.754;2023-08-06T05:00:46;15.50;;;6.45;;
76863;SDS011;65834;52.364;9.754;2023-08-06T05:03:16;14.57;;;6.63;;
76863;SDS011;65834;52.364;9.754;2023-08-06T05:05:46;16.92;;;6.88;;
76863;SDS011;65834;52.364;9.754;2023-08-06T05:08:19;14.38;;;6.82;;
76863;SDS011;65834;52.364;9.754;2023-08-06T05:10:48;17.67;;;6.32;;
76863;SDS011;65834;52.364;9.754;2023-08-06T05:13:18;15.85;;;6.82;;
76863;SDS011;65834;52.364;9.754;2023-08-06T05:15:48;15.23;;;6.65;;
76863;SDS011;65834;52.364;9.754;2023-08-06T05:18:18;15.20;;;6.75;;
76863;SDS011;65834;52.364;9.754;2023-08-06T05:20:48;14.48;;;6.50;;
76863;SDS011;65834;52.364;9.754;2023-08-06T05:23:21;15.80;;;7.80;;
76863;SDS011;65834;52.364;9.754;2023-08-06T05:25:51;15.13;;;7.10;;
76863;SDS011;65834;52.364;9.754;2023-08-06T05:28:20;15.30;;;7.28;;
76863;SDS011;65834;52.364;9.754;2023-08-06T05:30:50;16.88;;;6.70;;
76863;SDS011;65834;52.364;9.754;2023-08-06T05:33:19;15.07;;;7.13;;
76863;SDS011;65834;52.364;9.754;2023-08-06T05:35:49;14.57;;;6.38;;
76863;SDS011;65834;52.364;9.754;2023-08-06T05:38:21;14.80;;;6.78;;
76863;SDS011;65834;52.364;9.754;2023-08-06T05:40:51;13.75;;;6.10;;
76863;SDS011;65834;52.364;9.754;2023-08-06T05:43:21;14.13;;;5.93;;
76863;SDS011;65834;52.364;9.754;2023-08-06T05:45:51;13.95;;;5.95;;
76863;SDS011;65834;52.364;9.754;2023-08-06T05:48:21;12.55;;;5.85;;
76863;SDS011;65834;52.364;9.754;2023-08-06T05:50:51;13.77;;;5.80;;
76863;SDS011;65834;52.364;9.754;2023-08-06T05:53:24;14.40;;;5.80;;
76863;SDS011;65834;52.364;9.754;2023-08-06T05:55:53;12.65;;;6.10;;
76863;SDS011;65834;52.364;9.754;2023-08-06T05:58:23;13.73;;;5.43;;
76863;SDS011;65834;52.364;9.754;2023-08-06T06:00:55;13.57;;;5.95;;
76863;SDS011;65834;52.364;9.754;2023-08-06T06:03:25;14.55;;;5.93;;
76863;SDS011;65834;52.364;9.754;2023-08-06T06:05:54;13.43;;;5.10;;
76863;SDS011;65834;52.364;9.754;2023-08-06T06:08:27;11.95;;;5.07;;
76863;SDS011;65834;52.364;9.754;2023-08-06T06:10:56;14.38;;;5.10;;
76863;SDS011;65834;52.364;9.754;2023-08-06T06:13:26;11.60;;;4.40;;
76863;SDS011;65834;52.364;9.754;2023-08-06T06:15:55;10.52;;;4.13;;
76863;SDS011;65834;52.364;9.754;2023-08-06T06:18:25;10.00;;;4.18;;
76863;SDS011;65834;52.364;9.754;2023-08-06T06:20:54;10.63;;;4.22;;
76863;SDS011;65834;52.364;9.754;2023-08-06T06:23:27;10.82;;;4.40;;
76863;SDS011;65834;52.364;9.754;2023-08-06T06:25:56;11.13;;;4.03;;
76863;SDS011;65834;52.364;9.754;2023-08-06T06:28:29;10.55;;;4.15;;
76863;SDS011;65834;52.364;9.754;2023-08-06T06:31:00;11.27;;;4.10;;
76863;SDS011;65834;52.364;9.754;2023-08-06T06:33:30;10.57;;;4.28;;
76863;SDS011;65834;52.364;9.754;2023-08-06T06:35:59;11.10;;;3.90;;
76863;SDS011;65834;52.364;9.754;2023-08-06T06:38:32;9.07;;;3.22;;
76863;SDS011;65834;52.364;9.754;2023-08-06T06:41:01;9.65;;;3.78;;
76863;SDS011;65834;52.364;9.754;2023-08-06T06:43:31;10.63;;;3.30;;
76863;SDS011;65834;52.364;9.754;2023-08-06T06:46:01;8.10;;;3.20;;
76863;SDS011;65834;52.364;9.754;2023-08-06T06:48:31;9.65;;;3.63;;
76863;SDS011;65834;52.364;9.754;2023-08-06T06:51:02;10.30;;;3.25;;
76863;SDS011;65834;52.364;9.754;2023-08-06T06:53:42;8.85;;;3.20;;
76863;SDS011;65834;52.364;9.754;2023-08-06T06:56:12;9.40;;;3.40;;
76863;SDS011;65834;52.364;9.754;2023-08-06T06:58:42;10.15;;;3.75;;
76863;SDS011;65834;52.364;9.754;2023-08-06T07:01:11;9.30;;;3.20;;
76863;SDS011;65834;52.364;9.754;2023-08-06T07:03:41;7.72;;;3.03;;
76863;SDS011;65834;52.364;9.754;2023-08-06T07:06:10;7.22;;;3.08;;
76863;SDS011;65834;52.364;9.754;2023-08-06T07:08:44;9.32;;;3.03;;
76863;SDS011;65834;52.364;9.754;2023-08-06T07:11:14;8.77;;;3.05;;
76863;SDS011;65834;52.364;9.754;2023-08-06T07:13:43;9.32;;;3.03;;
76863;SDS011;65834;52.364;9.754;2023-08-06T07:16:13;4.82;;;2.38;;
76863;SDS011;65834;52.364;9.754;2023-08-06T07:18:42;8.20;;;3.22;;
76863;SDS011;65834;52.364;9.754;2023-08-06T07:21:12;7.03;;;2.88;;
76863;SDS011;65834;52.364;9.754;2023-08-06T07:23:53;7.60;;;2.80;;
76863;SDS011;65834;52.364;9.754;2023-08-06T07:26:22;7.57;;;2.50;;
76863;SDS011;65834;52.364;9.754;2023-08-06T07:28:52;6.78;;;2.92;;
76863;SDS011;65834;52.364;9.754;2023-08-06T07:31:21;6.60;;;2.50;;
76863;SDS011;65834;52.364;9.754;2023-08-06T07:33:52;7.72;;;2.40;;
76863;SDS011;65834;52.364;9.754;2023-08-06T07:36:21;7.43;;;2.40;;
76863;SDS011;65834;52.364;9.754;2023-08-06T07:38:54;6.82;;;2.63;;
76863;SDS011;65834;52.364;9.754;2023-08-06T07:41:24;4.70;;;2.20;;
76863;SDS011;65834;52.364;9.754;2023-08-06T07:43:53;5.07;;;2.22;;
76863;SDS011;65834;52.364;9.754;2023-08-06T07:46:23;5.95;;;2.40;;
76863;SDS011;65834;52.364;9.754;2023-08-06T07:48:53;6.03;;;2.20;;
76863;SDS011;65834;52.364;9.754;2023-08-06T07:51:22;6.70;;;2.35;;
76863;SDS011;65834;52.364;9.754;2023-08-06T07:53:54;6.38;;;2.33;;
76863;SDS011;65834;52.364;9.754;2023-08-06T07:56:24;4.90;;;2.30;;
76863;SDS011;65834;52.364;9.754;2023-08-06T07:58:54;4.70;;;2.28;;
76863;SDS011;65834;52.364;9.754;2023-08-06T08:01:23;6.25;;;2.50;;
76863;SDS011;65834;52.364;9.754;2023-08-06T08:03:53;7.30;;;2.30;;
76863;SDS011;65834;52.364;9.754;2023-08-06T08:06:22;4.55;;;2.20;;
76863;SDS011;65834;52.364;9.754;2023-08-06T08:08:54;4.78;;;2.40;;
76863;SDS011;65834;52.364;9.754;2023-08-06T08:11:25;6.88;;;2.50;;
76863;SDS011;65834;52.364;9.754;2023-08-06T08:13:55;5.22;;;2.28;;
76863;SDS011;65834;52.364;9.754;2023-08-06T08:16:24;6.93;;;2.65;;
76863;SDS011;65834;52.364;9.754;2023-08-06T08:18:54;6.25;;;2.45;;
76863;SDS011;65834;52.364;9.754;2023-08-06T08:21:23;9.15;;;2.67;;
76863;SDS011;65834;52.364;9.754;2023-08-06T08:23:56;3.58;;;2.00;;
76863;SDS011;65834;52.364;9.754;2023-08-06T08:26:25;3.97;;;2.08;;
76863;SDS011;65834;52.364;9.754;2023-08-06T08:28:56;7.95;;;2.38;;
76863;SDS011;65834;52.364;9.754;2023-08-06T08:31:26;5.95;;;2.47;;
76863;SDS011;65834;52.364;9.754;2023-08-06T08:33:56;6.78;;;2.50;;
76863;SDS011;65834;52.364;9.754;2023-08-06T08:36:27;7.35;;;2.70;;
76863;SDS011;65834;52.364;9.754;2023-08-06T08:38:59;4.63;;;2.10;;
76863;SDS011;65834;52.364;9.754;2023-08-06T08:41:29;5.78;;;2.22;;
76863;SDS011;65834;52.364;9.754;2023-08-06T08:43:59;7.03;;;2.65;;
76863;SDS011;65834;52.364;9.754;2023-08-06T08:46:29;6.65;;;2.42;;
76863;SDS011;65834;52.364;9.754;2023-08-06T08:49:01;6.22;;;2.30;;
76863;SDS011;65834;52.364;9.754;2023-08-06T08:51:31;5.70;;;2.22;;
76863;SDS011;65834;52.364;9.754;2023-08-06T08:54:05;5.50;;;2.42;;
76863;SDS011;65834;52.364;9.754;2023-08-06T08:56:36;5.40;;;2.40;;
76863;SDS011;65834;52.364;9.754;2023-08-06T08:59:06;6.05;;;2.50;;
76863;SDS011;65834;52.364;9.754;2023-08-06T09:01:36;7.15;;;3.00;;
76863;SDS011;65834;52.364;9.754;2023-08-06T09:04:07;4.85;;;2.30;;
76863;SDS011;65834;52.364;9.754;2023-08-06T09:06:39;13.02;;;4.70;;
76863;SDS011;65834;52.364;9.754;2023-08-06T09:09:15;9.10;;;3.03;;
76863;SDS011;65834;52.364;9.754;2023-08-06T09:11:51;7.25;;;2.55;;
76863;SDS011;65834;52.364;9.754;2023-08-06T09:14:22;7.28;;;2.65;;
76863;SDS011;65834;52.364;9.754;2023-08-06T09:16:51;7.75;;;2.88;;
76863;SDS011;65834;52.364;9.754;2023-08-06T09:19:21;7.65;;;2.67;;
76863;SDS011;65834;52.364;9.754;2023-08-06T09:21:51;7.50;;;2.78;;
76863;SDS011;65834;52.364;9.754;2023-08-06T09:24:24;8.00;;;3.03;;
76863;SDS011;65834;52.364;9.754;2023-08-06T09:26:54;7.40;;;2.90;;
76863;SDS011;65834;52.364;9.754;2023-08-06T09:29:24;4.70;;;2.40;;
76863;SDS011;65834;52.364;9.754;2023-08-06T09:32:00;7.65;;;2.90;;
76863;SDS011;65834;52.364;9.754;2023-08-06T09:34:29;9.23;;;4.00;;
76863;SDS011;65834;52.364;9.754;2023-08-06T09:36:59;8.63;;;3.08;;
76863;SDS011;65834;52.364;9.754;2023-08-06T09:39:31;10.45;;;3.22;;
76863;SDS011;65834;52.364;9.754;2023-08-06T09:42:01;9.35;;;3.20;;
76863;SDS011;65834;52.364;9.754;2023-08-06T09:44:32;9.10;;;3.70;;
76863;SDS011;65834;52.364;9.754;2023-08-06T09:47:02;7.57;;;3.20;;
76863;SDS011;65834;52.364;9.754;2023-08-06T09:49:42;8.55;;;3.58;;
76863;SDS011;65834;52.364;9.754;2023-08-06T09:52:13;7.65;;;3.20;;
76863;SDS011;65834;52.364;9.754;2023-08-06T09:54:45;10.73;;;3.47;;
76863;SDS011;65834;52.364;9.754;2023-08-06T09:57:17;6.95;;;2.63;;
76863;SDS011;65834;52.364;9.754;2023-08-06T09:59:46;8.13;;;2.90;;
76863;SDS011;65834;52.364;9.754;2023-08-06T10:02:16;5.50;;;2.63;;
76863;SDS011;65834;52.364;9.754;2023-08-06T10:04:48;20.33;;;9.30;;
76863;SDS011;65834;52.364;9.754;2023-08-06T10:09:53;8.07;;;2.58;;
76863;SDS011;65834;52.364;9.754;2023-08-06T10:12:23;4.88;;;2.47;;
76863;SDS011;65834;52.364;9.754;2023-08-06T10:14:55;4.80;;;2.33;;
76863;SDS011;65834;52.364;9.754;2023-08-06T10:17:26;5.15;;;2.45;;
76863;SDS011;65834;52.364;9.754;2023-08-06T10:20:15;4.13;;;1.83;;
76863;SDS011;65834;52.364;9.754;2023-08-06T10:22:45;7.88;;;2.83;;
76863;SDS011;65834;52.364;9.754;2023-08-06T10:25:18;6.30;;;2.33;;
76863;SDS011;65834;52.364;9.754;2023-08-06T10:27:54;6.60;;;2.45;;
76863;SDS011;65834;52.364;9.754;2023-08-06T10:30:24;6.25;;;2.33;;
76863;SDS011;65834;52.364;9.754;2023-08-06T10:32:55;6.85;;;2.85;;
76863;SDS011;65834;52.364;9.754;2023-08-06T10:35:27;7.53;;;2.65;;
76863;SDS011;65834;52.364;9.754;2023-08-06T10:37:59;8.57;;;2.33;;
76863;SDS011;65834;52.364;9.754;2023-08-06T10:40:35;5.22;;;2.38;;
76863;SDS011;65834;52.364;9.754;2023-08-06T10:43:05;5.80;;;2.47;;
76863;SDS011;65834;52.364;9.754;2023-08-06T10:45:37;5.55;;;2.60;;
76863;SDS011;65834;52.364;9.754;2023-08-06T10:48:06;5.35;;;2.53;;
76863;SDS011;65834;52.364;9.754;2023-08-06T10:50:36;4.50;;;2.30;;
76863;SDS011;65834;52.364;9.754;2023-08-06T10:53:06;5.68;;;2.75;;
76863;SDS011;65834;52.364;9.754;2023-08-06T10:55:41;9.37;;;2.93;;
76863;SDS011;65834;52.364;9.754;2023-08-06T10:58:10;4.75;;;2.35;;
76863;SDS011;65834;52.364;9.754;2023-08-06T11:00:44;4.90;;;2.58;;
76863;SDS011;65834;52.364;9.754;2023-08-06T11:03:14;6.22;;;2.38;;
76863;SDS011;65834;52.364;9.754;2023-08-06T11:05:48;4.20;;;2.40;;
76863;SDS011;65834;52.364;9.754;2023-08-06T11:08:25;7.50;;;2.70;;
76863;SDS011;65834;52.364;9.754;2023-08-06T11:10:57;7.28;;;3.05;;
76863;SDS011;65834;52.364;9.754;2023-08-06T11:13:37;8.63;;;3.38;;
76863;SDS011;65834;52.364;9.754;2023-08-06T11:16:07;6.13;;;2.45;;
76863;SDS011;65834;52.364;9.754;2023-08-06T11:18:37;4.68;;;2.30;;
76863;SDS011;65834;52.364;9.754;2023-08-06T11:21:07;6.00;;;2.20;;
76863;SDS011;65834;52.364;9.754;2023-08-06T11:23:38;4.65;;;2.08;;
76863;SDS011;65834;52.364;9.754;2023-08-06T11:26:12;5.25;;;2.47;;
76863;SDS011;65834;52.364;9.754;2023-08-06T11:28:42;6.30;;;2.60;;
76863;SDS011;65834;52.364;9.754;2023-08-06T11:31:18;4.03;;;2.13;;
76863;SDS011;65834;52.364;9.754;2023-08-06T11:33:49;8.15;;;2.60;;
76863;SDS011;65834;52.364;9.754;2023-08-06T11:36:28;4.43;;;2.28;;
76863;SDS011;65834;52.364;9.754;2023-08-06T11:38:58;6.45;;;2.40;;
76863;SDS011;65834;52.364;9.754;2023-08-06T11:41:32;5.13;;;2.15;;
76863;SDS011;65834;52.364;9.754;2023-08-06T11:44:02;5.15;;;2.15;;
76863;SDS011;65834;52.364;9.754;2023-08-06T11:49:36;5.13;;;2.28;;
76863;SDS011;65834;52.364;9.754;2023-08-06T11:52:08;4.35;;;2.00;;
76863;SDS011;65834;52.364;9.754;2023-08-06T11:54:40;3.63;;;1.98;;
76863;SDS011;65834;52.364;9.754;2023-08-06T11:57:12;5.50;;;2.20;;
76863;SDS011;65834;52.364;9.754;2023-08-06T11:59:43;5.10;;;2.10;;
76863;SDS011;65834;52.364;9.754;2023-08-06T12:02:14;7.45;;;2.80;;
76863;SDS011;65834;52.364;9.754;2023-08-06T12:07:31;7.15;;;2.75;;
76863;SDS011;65834;52.364;9.754;2023-08-06T12:10:01;7.93;;;2.50;;
76863;SDS011;65834;52.364;9.754;2023-08-06T12:12:34;7.85;;;2.95;;
76863;SDS011;65834;52.364;9.754;2023-08-06T12:15:05;7.78;;;2.35;;
76863;SDS011;65834;52.364;9.754;2023-08-06T12:17:36;6.05;;;2.40;;
76863;SDS011;65834;52.364;9.754;2023-08-06T12:20:06;5.50;;;2.30;;
76863;SDS011;65834;52.364;9.754;2023-08-06T12:22:37;4.47;;;2.40;;
76863;SDS011;65834;52.364;9.754;2023-08-06T12:25:07;6.30;;;2.63;;
76863;SDS011;65834;52.364;9.754;2023-08-06T12:30:12;5.75;;;2.13;;
76863;SDS011;65834;52.364;9.754;2023-08-06T12:32:42;5.05;;;2.00;;
76863;SDS011;65834;52.364;9.754;2023-08-06T12:35:11;6.55;;;2.35;;
76863;SDS011;65834;52.364;9.754;2023-08-06T12:37:41;6.45;;;2.53;;
76863;SDS011;65834;52.364;9.754;2023-08-06T12:40:12;8.27;;;2.67;;
76863;SDS011;65834;52.364;9.754;2023-08-06T12:43:03;5.40;;;2.10;;
76863;SDS011;65834;52.364;9.754;2023-08-06T12:45:32;5.80;;;1.90;;
76863;SDS011;65834;52.364;9.754;2023-08-06T12:48:03;4.68;;;2.03;;
76863;SDS011;65834;52.364;9.754;2023-08-06T12:50:33;5.60;;;2.30;;
76863;SDS011;65834;52.364;9.754;2023-08-06T12:53:02;7.78;;;2.60;;
76863;SDS011;65834;52.364;9.754;2023-08-06T12:55:33;6.32;;;2.40;;
76863;SDS011;65834;52.364;9.754;2023-08-06T12:58:05;6.55;;;2.72;;
76863;SDS011;65834;52.364;9.754;2023-08-06T13:00:34;5.40;;;2.35;;
76863;SDS011;65834;52.364;9.754;2023-08-06T13:03:04;4.90;;;2.28;;
76863;SDS011;65834;52.364;9.754;2023-08-06T13:05:44;6.93;;;2.63;;
76863;SDS011;65834;52.364;9.754;2023-08-06T13:08:14;6.95;;;2.70;;
76863;SDS011;65834;52.364;9.754;2023-08-06T13:10:43;8.52;;;2.70;;
76863;SDS011;65834;52.364;9.754;2023-08-06T13:13:16;6.07;;;2.35;;
76863;SDS011;65834;52.364;9.754;2023-08-06T13:15:45;6.28;;;2.70;;
76863;SDS011;65834;52.364;9.754;2023-08-06T13:18:15;7.60;;;2.50;;
76863;SDS011;65834;52.364;9.754;2023-08-06T13:20:44;5.35;;;2.25;;
76863;SDS011;65834;52.364;9.754;2023-08-06T13:23:16;5.15;;;2.53;;
76863;SDS011;65834;52.364;9.754;2023-08-06T13:25:45;4.45;;;2.20;;
76863;SDS011;65834;52.364;9.754;2023-08-06T13:28:17;7.65;;;2.85;;
76863;SDS011;65834;52.364;9.754;2023-08-06T13:30:47;8.27;;;3.03;;
76863;SDS011;65834;52.364;9.754;2023-08-06T13:33:17;6.63;;;2.92;;
76863;SDS011;65834;52.364;9.754;2023-08-06T13:35:49;6.22;;;2.50;;
76863;SDS011;65834;52.364;9.754;2023-08-06T13:38:18;5.97;;;2.78;;
76863;SDS011;65834;52.364;9.754;2023-08-06T13:40:48;6.05;;;2.58;;
76863;SDS011;65834;52.364;9.754;2023-08-06T13:43:20;7.30;;;2.60;;
76863;SDS011;65834;52.364;9.754;2023-08-06T13:45:50;6.78;;;2.65;;
76863;SDS011;65834;52.364;9.754;2023-08-06T13:48:19;6.53;;;2.80;;
76863;SDS011;65834;52.364;9.754;2023-08-06T13:50:49;7.05;;;2.60;;
76863;SDS011;65834;52.364;9.754;2023-08-06T13:53:19;6.90;;;2.70;;
76863;SDS011;65834;52.364;9.754;2023-08-06T13:55:48;5.30;;;2.60;;
76863;SDS011;65834;52.364;9.754;2023-08-06T13:58:21;5.60;;;2.30;;
76863;SDS011;65834;52.364;9.754;2023-08-06T14:00:52;8.95;;;2.60;;
76863;SDS011;65834;52.364;9.754;2023-08-06T14:03:23;6.45;;;2.65;;
76863;SDS011;65834;52.364;9.754;2023-08-06T14:05:53;6.25;;;2.60;;
76863;SDS011;65834;52.364;9.754;2023-08-06T14:08:23;5.40;;;2.40;;
76863;SDS011;65834;52.364;9.754;2023-08-06T14:10:53;4.88;;;2.42;;
76863;SDS011;65834;52.364;9.754;2023-08-06T14:13:25;5.45;;;2.40;;
76863;SDS011;65834;52.364;9.754;2023-08-06T14:15:55;8.30;;;2.40;;
76863;SDS011;65834;52.364;9.754;2023-08-06T14:18:25;4.95;;;2.33;;
76863;SDS011;65834;52.364;9.754;2023-08-06T14:20:55;6.43;;;3.08;;
76863;SDS011;65834;52.364;9.754;2023-08-06T14:23:24;5.05;;;2.20;;
76863;SDS011;65834;52.364;9.754;2023-08-06T14:25:54;6.25;;;2.45;;
76863;SDS011;65834;52.364;9.754;2023-08-06T14:28:26;7.75;;;2.65;;
76863;SDS011;65834;52.364;9.754;2023-08-06T14:30:55;5.75;;;2.50;;
76863;SDS011;65834;52.364;9.754;2023-08-06T14:33:25;5.20;;;2.70;;
76863;SDS011;65834;52.364;9.754;2023-08-06T14:35:55;5.97;;;2.60;;
76863;SDS011;65834;52.364;9.754;2023-08-06T14:38:24;7.75;;;3.10;;
76863;SDS011;65834;52.364;9.754;2023-08-06T14:41:19;6.03;;;2.30;;
76863;SDS011;65834;52.364;9.754;2023-08-06T14:43:51;6.75;;;2.42;;
76863;SDS011;65834;52.364;9.754;2023-08-06T14:46:22;5.63;;;2.45;;
76863;SDS011;65834;52.364;9.754;2023-08-06T14:48:51;5.75;;;2.47;;
76863;SDS011;65834;52.364;9.754;2023-08-06T14:51:21;4.85;;;2.50;;
76863;SDS011;65834;52.364;9.754;2023-08-06T14:53:50;5.63;;;2.50;;
76863;SDS011;65834;52.364;9.754;2023-08-06T14:56:20;5.88;;;2.67;;
76863;SDS011;65834;52.364;9.754;2023-08-06T14:58:52;8.05;;;2.65;;
76863;SDS011;65834;52.364;9.754;2023-08-06T15:01:22;8.40;;;3.30;;
76863;SDS011;65834;52.364;9.754;2023-08-06T15:03:51;7.00;;;2.90;;
76863;SDS011;65834;52.364;9.754;2023-08-06T15:06:21;5.95;;;2.50;;
76863;SDS011;65834;52.364;9.754;2023-08-06T15:08:51;5.70;;;2.97;;
76863;SDS011;65834;52.364;9.754;2023-08-06T15:11:24;7.47;;;2.88;;
76863;SDS011;65834;52.364;9.754;2023-08-06T15:13:56;5.10;;;1.88;;
76863;SDS011;65834;52.364;9.754;2023-08-06T15:16:28;7.45;;;2.78;;
76863;SDS011;65834;52.364;9.754;2023-08-06T15:19:00;6.72;;;2.80;;
76863;SDS011;65834;52.364;9.754;2023-08-06T15:21:30;8.25;;;3.00;;
76863;SDS011;65834;52.364;9.754;2023-08-06T15:24:00;4.68;;;2.17;;
76863;SDS011;65834;52.364;9.754;2023-08-06T15:26:29;8.93;;;2.88;;
76863;SDS011;65834;52.364;9.754;2023-08-06T15:29:03;9.90;;;3.28;;